createdAt,value
2022-10-23T00:03:42.466Z,14.88
2022-10-23T00:07:44.172Z,15.34
2022-10-23T00:11:44.360Z,15.31
2022-10-23T00:15:44.195Z,15.38
2022-10-23T00:19:43.826Z,15.27
2022-10-23T00:23:46.004Z,15.30
2022-10-23T00:27:45.618Z,15.00
2022-10-23T00:31:45.776Z,14.75
2022-10-23T00:35:46.204Z,14.86
2022-10-23T00:39:47.990Z,14.74
2022-10-23T00:44:04.968Z,15.07
2022-10-23T00:48:06.047Z,15.23
2022-10-23T00:52:09.855Z,15.64
2022-10-23T00:56:12.146Z,15.79
2022-10-23T01:00:17.262Z,15.71
2022-10-23T01:04:17.022Z,15.48
2022-10-23T01:08:24.046Z,15.69
2022-10-23T01:12:30.959Z,15.73
2022-10-23T01:16:39.659Z,15.93
2022-10-23T01:20:45.187Z,15.93
2022-10-23T01:24:53.052Z,15.81
2022-10-23T01:29:00.659Z,15.50
2022-10-23T01:33:06.538Z,15.50
2022-10-23T01:37:13.799Z,15.51
2022-10-23T01:41:18.214Z,15.23
2022-10-23T01:45:27.433Z,15.05
2022-10-23T01:49:26.912Z,14.70
2022-10-23T01:53:30.343Z,14.61
2022-10-23T01:57:33.497Z,14.56
2022-10-23T02:01:36.900Z,14.38
2022-10-23T02:05:39.031Z,14.37
2022-10-23T02:09:38.680Z,14.57
2022-10-23T02:13:44.913Z,14.54
2022-10-23T02:17:53.164Z,14.57
2022-10-23T02:21:57.644Z,14.53
2022-10-23T02:26:01.495Z,14.43
2022-10-23T02:30:06.445Z,14.31
2022-10-23T02:34:09.632Z,14.71
2022-10-23T02:38:34.768Z,14.63
2022-10-23T02:42:38.966Z,14.84
2022-10-23T02:46:52.011Z,14.89
2022-10-23T02:51:02.137Z,14.76
2022-10-23T02:55:12.479Z,14.82
2022-10-23T02:59:24.366Z,14.56
2022-10-23T03:03:30.309Z,14.49
2022-10-23T03:07:32.427Z,14.57
2022-10-23T03:11:33.725Z,14.51
2022-10-23T03:15:33.361Z,14.64
2022-10-23T03:19:32.409Z,14.71
2022-10-23T03:23:36.197Z,14.69
2022-10-23T03:27:36.449Z,14.75
2022-10-23T03:31:35.744Z,14.83
2022-10-23T03:35:35.410Z,14.85
2022-10-23T03:39:37.319Z,14.57
2022-10-23T03:43:36.428Z,14.32
2022-10-23T03:47:40.634Z,14.47
2022-10-23T03:51:41.532Z,14.70
2022-10-23T03:55:43.235Z,14.82
2022-10-23T03:59:42.806Z,14.88
2022-10-23T04:03:42.496Z,14.96
2022-10-23T04:07:42.241Z,15.02
2022-10-23T04:11:44.682Z,14.96
2022-10-23T04:15:50.267Z,15.08
2022-10-23T04:19:50.303Z,15.22
2022-10-23T04:23:49.664Z,15.22
2022-10-23T04:27:51.689Z,15.13
2022-10-23T04:31:51.667Z,15.20
2022-10-23T04:35:51.095Z,15.05
2022-10-23T04:39:50.714Z,14.97
2022-10-23T04:43:52.623Z,15.10
2022-10-23T04:47:53.090Z,15.21
2022-10-23T04:51:52.830Z,15.17
2022-10-23T04:55:57.366Z,14.84
2022-10-23T04:59:59.746Z,15.18
2022-10-23T05:03:59.063Z,15.13
2022-10-23T05:07:58.675Z,14.97
2022-10-23T05:11:59.753Z,15.28
2022-10-23T05:16:01.935Z,14.91
2022-10-23T05:20:04.748Z,15.28
2022-10-23T05:24:04.308Z,15.25
2022-10-23T05:28:03.448Z,15.26
2022-10-23T05:32:08.942Z,15.28
2022-10-23T05:36:10.856Z,15.30
2022-10-23T05:40:12.523Z,15.23
2022-10-23T05:44:12.650Z,15.46
2022-10-23T05:48:30.118Z,15.46
2022-10-23T05:52:33.973Z,15.62
2022-10-23T05:56:37.145Z,15.76
2022-10-23T06:00:37.186Z,15.86
2022-10-23T06:04:43.979Z,16.15
2022-10-23T06:08:48.926Z,16.21
2022-10-23T06:12:49.881Z,16.35
2022-10-23T06:16:49.783Z,16.60
2022-10-23T06:20:52.303Z,16.77
2022-10-23T06:24:52.957Z,16.77
2022-10-23T06:28:53.236Z,16.91
2022-10-23T10:52:52.845Z,24.06
2022-10-23T10:56:54.817Z,24.39
2022-10-23T11:01:00.846Z,24.01
2022-10-23T11:05:27.162Z,24.26
2022-10-23T11:09:56.958Z,24.25
2022-10-23T11:14:20.853Z,24.18
2022-10-23T11:18:30.907Z,24.49
2022-10-23T11:22:43.471Z,24.89
2022-10-23T11:27:12.341Z,25.11
2022-10-23T11:31:34.849Z,25.04
2022-10-23T11:35:51.198Z,24.85
2022-10-23T11:40:24.201Z,25.22
2022-10-23T11:44:57.593Z,24.98
2022-10-23T11:49:18.342Z,24.88
2022-10-23T11:53:44.972Z,24.91
2022-10-23T11:57:46.432Z,24.58
2022-10-23T12:01:52.215Z,24.77
2022-10-23T12:06:02.156Z,24.74
2022-10-23T12:10:11.541Z,24.53
2022-10-23T12:14:32.583Z,24.99
2022-10-23T12:18:36.434Z,24.97
2022-10-23T12:22:50.056Z,24.94
2022-10-23T12:27:01.172Z,25.26
2022-10-23T12:31:13.603Z,25.45
2022-10-23T12:35:36.357Z,25.81
2022-10-23T12:39:45.966Z,25.34
2022-10-23T12:43:57.419Z,25.64
2022-10-23T12:47:57.521Z,25.75
2022-10-23T12:52:01.760Z,25.78
2022-10-23T12:56:04.538Z,25.71
2022-10-23T13:00:30.887Z,25.48
2022-10-23T13:04:33.222Z,25.73
2022-10-23T13:08:51.967Z,25.48
2022-10-23T13:12:57.182Z,25.59
2022-10-23T13:17:03.123Z,25.90
2022-10-23T13:21:04.003Z,25.68
2022-10-23T13:25:25.879Z,25.81
2022-10-23T13:29:29.525Z,25.89
2022-10-23T13:33:35.413Z,25.77
2022-10-23T13:37:35.587Z,25.43
2022-10-23T13:41:46.137Z,25.34
2022-10-23T13:45:49.547Z,25.05
2022-10-23T13:49:50.806Z,25.30
2022-10-23T13:53:51.442Z,25.09
2022-10-23T13:57:53.597Z,25.17
2022-10-23T14:01:57.070Z,25.26
2022-10-23T14:05:58.273Z,25.17
2022-10-23T14:10:00.489Z,24.89
2022-10-23T14:14:03.048Z,25.01
2022-10-23T14:18:08.250Z,24.90
2022-10-23T14:22:08.494Z,25.12
2022-10-23T14:26:10.594Z,25.05
2022-10-23T14:30:13.991Z,24.87
2022-10-23T14:34:15.947Z,24.75
2022-10-23T14:38:20.288Z,24.44
2022-10-23T14:42:20.820Z,24.70
2022-10-23T14:46:25.775Z,24.54
2022-10-23T14:50:26.417Z,24.60
2022-10-23T14:54:26.636Z,24.71
2022-10-23T14:58:28.208Z,24.63
2022-10-23T15:02:33.081Z,24.51
2022-10-23T15:06:36.277Z,24.42
2022-10-23T15:10:36.201Z,24.16
2022-10-23T15:14:40.125Z,24.16
2022-10-23T15:18:46.375Z,23.97
2022-10-23T15:22:47.036Z,23.68
2022-10-23T15:26:47.370Z,23.65
2022-10-23T15:30:47.673Z,23.44
2022-10-23T15:34:51.872Z,23.32
2022-10-23T15:38:52.754Z,23.02
2022-10-23T15:42:52.804Z,22.98
2022-10-23T15:46:52.850Z,23.00
2022-10-23T15:50:55.231Z,22.89
2022-10-23T15:54:55.529Z,22.68
2022-10-23T15:58:59.100Z,22.66
2022-10-23T16:03:04.100Z,22.52
2022-10-23T16:07:07.225Z,22.39
2022-10-23T16:11:14.627Z,22.21
2022-10-23T16:15:14.969Z,22.25
2022-10-23T16:19:15.381Z,22.12
2022-10-23T16:23:19.360Z,22.10
2022-10-23T16:27:21.361Z,22.03
2022-10-23T16:31:23.121Z,21.73
2022-10-23T16:35:25.395Z,21.84
2022-10-23T16:39:30.414Z,21.73
2022-10-23T16:43:50.339Z,21.75
2022-10-23T16:47:51.738Z,21.59
2022-10-23T16:51:51.454Z,21.57
2022-10-23T16:55:53.560Z,21.63
2022-10-23T16:59:53.423Z,21.42
2022-10-23T17:03:55.601Z,21.47
2022-10-23T17:07:55.874Z,21.41
2022-10-23T17:11:58.221Z,21.31
2022-10-23T17:16:06.368Z,21.26
2022-10-23T17:20:07.531Z,21.20
2022-10-23T17:24:08.276Z,20.82
2022-10-23T17:28:12.980Z,20.57
2022-10-23T17:32:12.701Z,20.58
2022-10-23T17:36:14.921Z,20.53
2022-10-23T17:40:15.001Z,20.45
2022-10-23T17:44:17.323Z,20.37
2022-10-23T17:48:17.185Z,20.38
2022-10-23T17:52:17.215Z,20.25
2022-10-23T17:56:28.218Z,20.31
2022-10-23T18:00:36.161Z,19.95
2022-10-23T18:04:37.654Z,20.04
2022-10-23T18:13:34.519Z,19.85
2022-10-23T18:17:38.121Z,20.00
2022-10-23T18:21:39.949Z,19.84
2022-10-23T18:25:45.648Z,19.66
2022-10-23T18:29:45.337Z,19.27
2022-10-23T18:33:47.980Z,19.15
2022-10-23T18:37:48.190Z,18.98
2022-10-23T18:41:48.330Z,19.43
2022-10-23T18:45:48.431Z,19.40
2022-10-23T18:49:50.711Z,19.28
2022-10-23T18:53:51.131Z,19.35
2022-10-23T18:57:51.350Z,19.50
2022-10-23T19:01:52.595Z,19.71
2022-10-23T19:05:55.192Z,19.85
2022-10-23T19:09:55.544Z,19.41
2022-10-23T19:13:55.627Z,19.20
2022-10-23T19:18:05.246Z,19.15
2022-10-23T19:22:08.200Z,19.27
2022-10-23T19:26:10.066Z,19.48
2022-10-23T19:30:13.363Z,19.61
2022-10-23T19:34:13.069Z,19.43
2022-10-23T19:38:15.861Z,19.27
2022-10-23T19:42:18.799Z,19.04
2022-10-23T19:46:18.882Z,18.60
2022-10-23T19:50:19.862Z,18.41
2022-10-23T19:54:22.675Z,18.14
2022-10-23T19:58:23.208Z,17.92
2022-10-23T20:02:23.615Z,17.72
2022-10-23T20:06:25.875Z,17.30
2022-10-23T20:10:28.362Z,17.30
2022-10-23T20:14:28.805Z,17.03
2022-10-23T20:18:29.063Z,16.88
2022-10-23T20:22:29.792Z,16.60
2022-10-23T20:26:32.065Z,16.38
2022-10-23T20:30:32.480Z,16.16
2022-10-23T20:34:31.905Z,16.13
2022-10-23T20:38:31.942Z,16.07
2022-10-23T20:42:34.197Z,15.98
2022-10-23T20:46:34.552Z,15.92
2022-10-23T20:50:36.521Z,16.30
2022-10-23T20:54:37.888Z,16.38
2022-10-23T20:58:40.143Z,16.36
2022-10-23T21:02:40.448Z,16.42
2022-10-23T21:06:51.820Z,16.74
2022-10-23T21:11:00.727Z,16.43
2022-10-23T21:15:02.603Z,15.91
2022-10-23T21:19:04.172Z,15.83
2022-10-23T21:23:04.295Z,15.78
2022-10-23T21:27:04.414Z,15.76
2022-10-23T21:31:07.954Z,15.96
2022-10-23T21:35:08.989Z,15.99
2022-10-23T21:39:09.027Z,15.83
2022-10-23T21:43:10.790Z,15.55
2022-10-23T21:47:13.483Z,15.59
2022-10-23T21:51:19.426Z,15.77
2022-10-23T21:55:19.507Z,15.93
2022-10-23T21:59:21.236Z,15.73
2022-10-23T22:03:23.617Z,15.77
2022-10-23T22:07:26.737Z,15.84
2022-10-23T22:11:30.536Z,15.91
2022-10-23T22:15:30.235Z,15.77
2022-10-23T22:19:32.547Z,15.59
2022-10-23T22:23:32.754Z,15.52
2022-10-23T22:27:32.885Z,15.19
2022-10-23T22:31:34.580Z,15.08
2022-10-23T22:35:36.231Z,15.00
2022-10-23T22:39:36.478Z,15.39
2022-10-23T22:43:37.204Z,15.48
2022-10-23T22:47:37.552Z,15.55
2022-10-23T22:51:40.742Z,15.40
2022-10-23T22:55:43.835Z,14.92
2022-10-23T22:59:44.086Z,14.28
2022-10-23T23:03:44.607Z,14.34
2022-10-23T23:07:46.837Z,14.67
2022-10-23T23:11:51.506Z,15.23
2022-10-23T23:15:52.549Z,14.66
2022-10-23T23:19:52.873Z,14.62
2022-10-23T23:23:55.398Z,14.65
2022-10-23T23:27:55.739Z,14.57
2022-10-23T23:31:55.770Z,14.88
2022-10-23T23:35:54.865Z,14.92
2022-10-23T23:39:57.349Z,14.91
2022-10-23T23:43:59.228Z,15.11
2022-10-23T23:48:00.483Z,15.13
2022-10-23T23:52:00.879Z,15.02
2022-10-23T23:56:03.490Z,14.87
